createdAt,value
2022-11-30T00:01:14.568Z,6.64
2022-11-30T00:03:41.748Z,6.66
2022-11-30T00:06:11.009Z,6.66
2022-11-30T00:08:38.338Z,6.62
2022-11-30T00:11:18.077Z,6.64
2022-11-30T00:13:45.353Z,6.60
2022-11-30T00:16:12.144Z,6.63
2022-11-30T00:18:39.207Z,6.64
2022-11-30T00:21:11.147Z,6.63
2022-11-30T00:23:40.228Z,6.63
2022-11-30T00:26:09.660Z,6.66
2022-11-30T00:28:37.775Z,6.61
2022-11-30T00:31:06.986Z,6.64
2022-11-30T00:33:34.871Z,6.62
2022-11-30T00:36:04.698Z,6.64
2022-11-30T00:38:32.159Z,6.61
2022-11-30T00:41:00.131Z,6.63
2022-11-30T00:43:26.913Z,6.60
2022-11-30T00:45:53.991Z,6.62
2022-11-30T00:48:20.982Z,6.59
2022-11-30T00:50:51.632Z,6.63
2022-11-30T00:53:18.934Z,6.58
2022-11-30T00:55:46.156Z,6.62
2022-11-30T00:58:13.308Z,6.66
2022-11-30T01:00:41.528Z,6.66
2022-11-30T01:03:08.818Z,6.67
2022-11-30T01:05:36.663Z,6.65
2022-11-30T01:08:05.384Z,6.66
2022-11-30T01:10:32.881Z,6.65
2022-11-30T01:12:59.560Z,6.64
2022-11-30T01:15:26.263Z,6.62
2022-11-30T01:17:52.962Z,6.63
2022-11-30T01:20:19.969Z,6.62
2022-11-30T01:22:46.754Z,6.61
2022-11-30T01:25:13.481Z,6.65
2022-11-30T01:27:40.691Z,6.64
2022-11-30T01:30:08.213Z,6.63
2022-11-30T01:32:35.043Z,6.64
2022-11-30T01:35:01.914Z,6.64
2022-11-30T01:37:30.233Z,6.63
2022-11-30T01:39:57.124Z,6.60
2022-11-30T01:42:24.390Z,6.62
2022-11-30T01:44:52.946Z,6.57
2022-11-30T01:47:40.659Z,6.59
2022-11-30T01:50:15.252Z,6.55
2022-11-30T01:52:46.987Z,6.59
2022-11-30T01:55:21.598Z,6.60
2022-11-30T01:57:52.428Z,6.60
2022-11-30T02:00:20.123Z,6.57
2022-11-30T02:02:55.099Z,6.57
2022-11-30T02:05:22.099Z,6.59
2022-11-30T02:07:49.035Z,6.55
2022-11-30T02:10:19.406Z,6.59
2022-11-30T02:13:05.237Z,6.52
2022-11-30T02:15:42.452Z,6.58
2022-11-30T02:18:16.380Z,6.57
2022-11-30T02:20:42.908Z,6.58
2022-11-30T02:23:09.848Z,6.61
2022-11-30T02:25:59.632Z,6.63
2022-11-30T02:29:03.625Z,6.64
2022-11-30T02:31:49.099Z,6.60
2022-11-30T02:34:17.976Z,6.64
2022-11-30T02:36:46.314Z,6.61
2022-11-30T02:39:13.127Z,6.59
2022-11-30T02:41:41.039Z,6.62
2022-11-30T02:44:11.280Z,6.65
2022-11-30T02:47:02.355Z,6.63
2022-11-30T02:49:47.428Z,6.62
2022-11-30T02:52:16.437Z,6.61
2022-11-30T02:54:43.480Z,6.64
2022-11-30T02:57:10.188Z,6.62
2022-11-30T02:59:37.289Z,6.61
2022-11-30T03:02:04.035Z,6.61
2022-11-30T03:04:30.845Z,6.63
2022-11-30T03:06:57.577Z,6.65
2022-11-30T03:09:24.213Z,6.63
2022-11-30T03:11:51.504Z,6.64
2022-11-30T03:14:18.156Z,6.63
2022-11-30T03:16:44.796Z,6.63
2022-11-30T03:19:11.540Z,6.67
2022-11-30T03:21:38.197Z,6.67
2022-11-30T03:24:05.029Z,6.64
2022-11-30T03:26:31.698Z,6.67
2022-11-30T03:28:58.347Z,6.66
2022-11-30T03:31:25.156Z,6.66
2022-11-30T03:33:51.878Z,6.66
2022-11-30T03:36:18.604Z,6.69
2022-11-30T03:38:47.693Z,6.69
2022-11-30T03:41:19.066Z,6.68
2022-11-30T03:43:47.020Z,6.72
2022-11-30T03:46:14.562Z,6.68
2022-11-30T03:48:44.273Z,6.70
2022-11-30T03:51:12.496Z,6.72
2022-11-30T03:53:40.210Z,6.74
2022-11-30T03:56:08.782Z,6.76
2022-11-30T03:58:35.817Z,6.72
2022-11-30T04:01:06.768Z,6.71
2022-11-30T04:03:34.513Z,6.72
2022-11-30T04:06:01.576Z,6.71
2022-11-30T04:08:29.313Z,6.72
2022-11-30T04:10:57.451Z,6.68
2022-11-30T04:13:24.855Z,6.67
2022-11-30T04:15:52.876Z,6.67
2022-11-30T04:18:21.268Z,6.67
2022-11-30T04:20:51.256Z,6.65
2022-11-30T04:23:18.457Z,6.64
2022-11-30T04:25:45.848Z,6.70
2022-11-30T04:28:12.539Z,6.69
2022-11-30T04:30:39.227Z,6.70
2022-11-30T04:33:06.512Z,6.68
2022-11-30T04:35:34.021Z,6.70
2022-11-30T04:38:01.172Z,6.71
2022-11-30T04:40:27.882Z,6.71
2022-11-30T04:42:54.646Z,6.72
2022-11-30T04:45:21.515Z,6.74
2022-11-30T04:47:48.216Z,6.75
2022-11-30T04:50:14.951Z,6.75
2022-11-30T04:52:41.683Z,6.76
2022-11-30T04:55:09.080Z,6.74
2022-11-30T04:57:35.852Z,6.75
2022-11-30T05:00:04.065Z,6.77
2022-11-30T05:02:31.103Z,6.76
2022-11-30T05:04:57.953Z,6.78
2022-11-30T05:07:24.994Z,6.76
2022-11-30T05:09:51.830Z,6.76
2022-11-30T05:12:18.601Z,6.75
2022-11-30T05:14:45.941Z,6.77
2022-11-30T05:17:12.868Z,6.78
2022-11-30T05:19:42.899Z,6.76
2022-11-30T05:22:09.897Z,6.72
2022-11-30T05:24:36.610Z,6.70
2022-11-30T05:27:07.682Z,6.75
2022-11-30T05:29:37.761Z,6.74
2022-11-30T05:32:04.578Z,6.73
2022-11-30T05:34:37.667Z,6.65
2022-11-30T05:37:16.281Z,6.68
2022-11-30T05:39:43.034Z,6.67
2022-11-30T05:42:09.685Z,6.71
2022-11-30T05:44:36.365Z,6.70
2022-11-30T05:47:03.140Z,6.72
2022-11-30T05:49:29.949Z,6.67
2022-11-30T05:51:56.682Z,6.66
2022-11-30T05:54:23.409Z,6.70
2022-11-30T05:56:54.486Z,6.70
2022-11-30T05:59:22.856Z,6.74
2022-11-30T06:01:52.494Z,6.72
2022-11-30T06:04:19.828Z,6.74
2022-11-30T06:06:46.590Z,6.75
2022-11-30T06:09:13.312Z,6.77
2022-11-30T06:11:39.976Z,6.74
2022-11-30T06:14:07.035Z,6.70
2022-11-30T06:16:33.768Z,6.74
2022-11-30T06:19:00.585Z,6.73
2022-11-30T06:21:27.320Z,6.69
2022-11-30T06:23:54.134Z,6.70
2022-11-30T06:26:21.208Z,6.73
2022-11-30T06:28:48.862Z,6.70
2022-11-30T06:31:16.814Z,6.71
2022-11-30T06:33:43.867Z,6.72
2022-11-30T06:36:10.812Z,6.70
2022-11-30T06:38:37.881Z,6.72
2022-11-30T06:41:06.891Z,6.69
2022-11-30T06:43:38.053Z,6.73
2022-11-30T06:46:05.937Z,6.69
2022-11-30T06:48:33.774Z,6.69
2022-11-30T06:51:00.771Z,6.72
2022-11-30T06:53:27.859Z,6.72
2022-11-30T06:55:56.908Z,6.71
2022-11-30T06:58:23.693Z,6.71
2022-11-30T07:00:50.422Z,6.69
2022-11-30T07:03:17.308Z,6.68
2022-11-30T07:05:46.007Z,6.68
2022-11-30T07:08:14.338Z,6.65
2022-11-30T07:10:45.263Z,6.69
2022-11-30T07:13:17.482Z,6.68
2022-11-30T07:15:45.353Z,6.70
2022-11-30T07:18:12.556Z,6.69
2022-11-30T07:20:39.873Z,6.73
2022-11-30T07:23:25.060Z,6.73
2022-11-30T07:26:08.068Z,6.72
2022-11-30T07:28:36.756Z,6.76
2022-11-30T07:31:16.771Z,6.79
2022-11-30T07:33:43.747Z,6.75
2022-11-30T07:36:10.783Z,6.79
2022-11-30T07:38:38.629Z,6.82
2022-11-30T07:41:05.706Z,6.83
2022-11-30T07:43:33.202Z,6.85
2022-11-30T07:46:01.517Z,6.84
2022-11-30T07:48:28.313Z,6.84
2022-11-30T07:50:56.426Z,6.86
2022-11-30T07:53:23.162Z,6.86
2022-11-30T07:55:55.539Z,6.88
2022-11-30T07:58:23.567Z,6.84
2022-11-30T08:00:50.310Z,6.81
2022-11-30T08:03:17.044Z,6.82
2022-11-30T08:05:43.688Z,6.83
2022-11-30T08:08:10.350Z,6.81
2022-11-30T08:10:36.983Z,6.85
2022-11-30T08:13:03.905Z,6.87
2022-11-30T08:15:32.710Z,6.87
2022-11-30T08:18:05.496Z,6.89
2022-11-30T08:20:32.334Z,6.89
2022-11-30T08:22:59.560Z,6.87
2022-11-30T08:25:26.337Z,6.89
2022-11-30T08:27:53.081Z,6.91
2022-11-30T08:30:19.918Z,6.88
2022-11-30T08:32:46.694Z,6.90
2022-11-30T08:35:13.437Z,6.92
2022-11-30T08:37:40.279Z,6.99
2022-11-30T08:40:07.618Z,7.02
2022-11-30T08:42:34.534Z,7.05
2022-11-30T08:45:01.727Z,7.07
2022-11-30T08:47:30.326Z,7.08
2022-11-30T08:49:58.436Z,7.13
2022-11-30T08:52:25.250Z,7.10
2022-11-30T08:54:52.406Z,7.12
2022-11-30T08:57:21.648Z,7.12
2022-11-30T08:59:49.130Z,7.12
2022-11-30T09:02:18.516Z,7.19
2022-11-30T09:04:49.195Z,7.19
2022-11-30T09:07:16.404Z,7.20
2022-11-30T09:09:43.547Z,7.17
2022-11-30T09:12:10.488Z,7.24
2022-11-30T09:14:37.276Z,7.28
2022-11-30T09:17:04.104Z,7.31
2022-11-30T09:19:30.846Z,7.34
2022-11-30T09:21:57.563Z,7.35
2022-11-30T09:24:24.337Z,7.30
2022-11-30T09:26:51.035Z,7.35
2022-11-30T09:29:17.806Z,7.35
2022-11-30T09:31:44.558Z,7.42
2022-11-30T09:34:12.211Z,7.40
2022-11-30T09:36:39.027Z,7.47
2022-11-30T09:39:06.626Z,7.45
2022-11-30T09:41:37.062Z,7.48
2022-11-30T09:44:13.407Z,7.48
2022-11-30T09:46:47.207Z,7.45
2022-11-30T09:49:25.063Z,7.43
2022-11-30T09:51:54.967Z,7.42
2022-11-30T09:54:35.655Z,7.43
2022-11-30T09:57:15.625Z,7.36
2022-11-30T09:59:48.633Z,7.42
2022-11-30T10:02:18.186Z,7.45
2022-11-30T10:04:45.834Z,7.49
2022-11-30T10:07:40.947Z,7.52
2022-11-30T10:10:33.104Z,7.53
2022-11-30T10:13:28.202Z,7.56
2022-11-30T10:16:06.857Z,7.53
2022-11-30T10:19:07.700Z,7.53
2022-11-30T10:21:56.105Z,7.60
2022-11-30T10:24:34.551Z,7.61
2022-11-30T10:27:23.685Z,7.63
2022-11-30T10:29:51.098Z,7.60
2022-11-30T10:32:22.116Z,7.62
2022-11-30T10:35:01.911Z,7.55
2022-11-30T10:37:35.830Z,7.59
2022-11-30T10:40:13.279Z,7.58
2022-11-30T10:42:48.160Z,7.60
2022-11-30T10:45:19.931Z,7.65
2022-11-30T10:47:52.708Z,7.66
2022-11-30T10:50:21.917Z,7.55
2022-11-30T10:52:52.146Z,7.57
2022-11-30T10:55:23.686Z,7.57
2022-11-30T10:57:56.138Z,7.62
2022-11-30T11:00:22.912Z,7.58
2022-11-30T11:02:50.665Z,7.64
2022-11-30T11:05:20.444Z,7.65
2022-11-30T11:08:19.750Z,7.63
2022-11-30T11:10:49.892Z,7.67
2022-11-30T11:13:18.758Z,7.69
2022-11-30T11:16:00.296Z,7.69
2022-11-30T11:18:29.451Z,7.74
2022-11-30T11:21:06.152Z,7.70
2022-11-30T11:23:40.896Z,7.73
2022-11-30T11:26:17.458Z,7.79
2022-11-30T11:28:46.791Z,7.77
2022-11-30T11:31:39.334Z,7.86
2022-11-30T11:34:24.180Z,7.84
2022-11-30T11:37:06.176Z,7.81
2022-11-30T11:39:32.926Z,7.82
2022-11-30T11:42:00.665Z,7.88
2022-11-30T11:44:28.252Z,7.95
2022-11-30T11:46:58.461Z,7.93
2022-11-30T11:49:29.508Z,7.94
2022-11-30T11:52:11.555Z,7.91
2022-11-30T11:54:41.037Z,7.94
2022-11-30T11:57:11.833Z,7.99
2022-11-30T12:00:02.210Z,7.93
2022-11-30T12:02:53.656Z,7.99
2022-11-30T12:05:29.557Z,8.03
2022-11-30T12:08:05.223Z,8.00
2022-11-30T12:10:51.735Z,8.02
2022-11-30T12:13:24.706Z,7.95
2022-11-30T12:16:07.747Z,7.93
2022-11-30T12:18:43.973Z,7.94
2022-11-30T12:21:16.532Z,7.99
2022-11-30T12:23:58.227Z,7.98
2022-11-30T12:26:45.341Z,7.94
2022-11-30T12:29:22.000Z,7.93
2022-11-30T12:32:13.513Z,7.91
2022-11-30T12:35:17.965Z,7.86
2022-11-30T12:38:02.970Z,7.89
2022-11-30T12:40:57.707Z,7.91
2022-11-30T12:43:38.841Z,7.91
2022-11-30T12:46:25.812Z,7.90
2022-11-30T12:49:09.114Z,7.89
2022-11-30T12:51:59.238Z,7.84
2022-11-30T12:54:58.363Z,7.86
2022-11-30T12:57:58.185Z,7.85
2022-11-30T13:00:35.663Z,7.84
2022-11-30T13:03:37.441Z,7.85
2022-11-30T13:06:18.635Z,7.77
2022-11-30T13:09:00.364Z,7.72
2022-11-30T13:11:56.595Z,7.67
2022-11-30T13:14:25.986Z,7.64
2022-11-30T13:17:18.084Z,7.46
2022-11-30T13:19:53.118Z,7.49
2022-11-30T13:22:32.463Z,7.48
2022-11-30T13:25:59.342Z,7.43
2022-11-30T13:28:49.152Z,7.39
2022-11-30T13:31:26.209Z,7.27
2022-11-30T13:33:53.035Z,7.21
2022-11-30T13:36:35.162Z,7.21
2022-11-30T13:39:14.084Z,7.17
2022-11-30T13:41:46.796Z,7.27
2022-11-30T13:44:33.434Z,7.21
2022-11-30T13:47:31.045Z,7.19
2022-11-30T13:50:00.851Z,7.22
2022-11-30T13:52:58.733Z,7.16
2022-11-30T13:55:50.442Z,7.10
2022-11-30T13:58:19.700Z,7.04
2022-11-30T14:01:18.769Z,7.05
2022-11-30T14:04:14.429Z,7.04
2022-11-30T14:06:51.829Z,7.06
2022-11-30T14:09:37.425Z,7.08
2022-11-30T14:12:37.234Z,7.01
2022-11-30T14:15:31.736Z,6.95
2022-11-30T14:17:59.071Z,7.02
2022-11-30T14:20:37.541Z,6.97
2022-11-30T14:23:13.479Z,6.91
2022-11-30T14:25:46.985Z,6.93
2022-11-30T14:28:17.897Z,6.95
2022-11-30T14:30:45.641Z,6.91
2022-11-30T14:33:27.599Z,6.83
2022-11-30T14:35:56.749Z,6.92
2022-11-30T14:38:31.311Z,6.91
2022-11-30T14:40:58.466Z,6.93
2022-11-30T14:43:25.657Z,6.91
2022-11-30T14:46:07.129Z,6.96
2022-11-30T14:48:36.003Z,6.84
2022-11-30T14:51:06.800Z,6.88
2022-11-30T14:53:43.664Z,6.85
2022-11-30T14:56:31.601Z,6.85
2022-11-30T14:59:03.707Z,6.86
2022-11-30T15:01:32.691Z,6.83
2022-11-30T15:04:12.635Z,6.87
2022-11-30T15:06:40.665Z,6.83
2022-11-30T15:09:16.660Z,6.83
2022-11-30T15:11:46.923Z,6.83
2022-11-30T15:14:13.713Z,6.81
2022-11-30T15:16:53.208Z,6.84
2022-11-30T15:19:32.847Z,6.83
2022-11-30T15:22:00.448Z,6.80
2022-11-30T15:24:29.515Z,6.82
2022-11-30T15:27:08.810Z,6.78
2022-11-30T15:29:42.691Z,6.80
2022-11-30T15:32:17.732Z,6.75
2022-11-30T15:34:53.531Z,6.76
2022-11-30T15:37:39.123Z,6.80
2022-11-30T15:40:08.698Z,6.77
2022-11-30T15:42:40.547Z,6.75
2022-11-30T15:45:16.990Z,6.79
2022-11-30T15:47:43.846Z,6.77
2022-11-30T15:50:28.627Z,6.70
2022-11-30T15:52:57.809Z,6.75
2022-11-30T15:55:47.599Z,6.78
2022-11-30T15:58:30.905Z,6.74
2022-11-30T16:01:11.777Z,6.71
2022-11-30T16:03:58.109Z,6.74
2022-11-30T16:06:35.236Z,6.77
2022-11-30T16:09:18.774Z,6.77
2022-11-30T16:11:47.201Z,6.76
2022-11-30T16:14:17.276Z,6.76
2022-11-30T16:16:44.843Z,6.76
2022-11-30T16:19:11.826Z,6.76
2022-11-30T16:21:38.780Z,6.68
2022-11-30T16:24:06.269Z,6.66
2022-11-30T16:26:50.615Z,6.63
2022-11-30T16:29:18.023Z,6.64
2022-11-30T16:31:44.917Z,6.61
2022-11-30T16:34:12.389Z,6.61
2022-11-30T16:36:39.322Z,6.58
2022-11-30T16:39:06.721Z,6.55
2022-11-30T16:41:35.968Z,6.56
2022-11-30T16:44:02.643Z,6.59
2022-11-30T16:46:30.194Z,6.61
2022-11-30T16:48:57.090Z,6.54
2022-11-30T16:51:27.301Z,6.60
2022-11-30T16:53:54.304Z,6.58
2022-11-30T16:56:21.867Z,6.58
2022-11-30T16:58:48.898Z,6.59
2022-11-30T17:01:19.229Z,6.62
2022-11-30T17:03:48.796Z,6.62
2022-11-30T17:06:21.752Z,6.57
2022-11-30T17:08:49.237Z,6.58
2022-11-30T17:11:25.388Z,6.57
2022-11-30T17:13:52.278Z,6.58
2022-11-30T17:16:19.076Z,6.58
2022-11-30T17:18:45.900Z,6.58
2022-11-30T17:21:18.388Z,6.55
2022-11-30T17:23:45.492Z,6.56
2022-11-30T17:26:13.352Z,6.53
2022-11-30T17:28:41.757Z,6.49
2022-11-30T17:31:10.618Z,6.46
2022-11-30T17:33:37.822Z,6.50
2022-11-30T17:36:07.601Z,6.50
2022-11-30T17:38:36.028Z,6.46
2022-11-30T17:41:06.997Z,6.44
2022-11-30T17:43:35.784Z,6.42
2022-11-30T17:46:07.585Z,6.44
2022-11-30T17:48:34.380Z,6.44
2022-11-30T17:51:01.213Z,6.46
2022-11-30T17:53:28.113Z,6.47
2022-11-30T17:56:10.747Z,6.48
2022-11-30T17:58:43.924Z,6.49
2022-11-30T18:01:22.912Z,6.51
2022-11-30T18:03:50.405Z,6.45
2022-11-30T18:06:17.526Z,6.38
2022-11-30T18:08:44.846Z,6.38
2022-11-30T18:11:17.472Z,6.35
2022-11-30T18:13:44.501Z,6.27
2022-11-30T18:16:15.650Z,6.31
2022-11-30T18:18:47.397Z,6.34
2022-11-30T18:21:17.225Z,6.37
2022-11-30T18:23:43.947Z,6.31
2022-11-30T18:26:14.201Z,6.37
2022-11-30T18:28:41.738Z,6.35
2022-11-30T18:31:08.697Z,6.33
2022-11-30T18:33:36.529Z,6.31
2022-11-30T18:36:06.761Z,6.31
2022-11-30T18:38:37.576Z,6.30
2022-11-30T18:41:06.678Z,6.25
2022-11-30T18:43:34.397Z,6.28
2022-11-30T18:46:09.794Z,6.32
2022-11-30T18:48:37.589Z,6.30
2022-11-30T18:51:15.953Z,6.31
2022-11-30T18:53:43.440Z,6.23
2022-11-30T18:56:11.469Z,6.20
2022-11-30T18:58:38.316Z,6.27
2022-11-30T19:01:16.887Z,6.22
2022-11-30T19:03:44.177Z,6.22
2022-11-30T19:06:11.647Z,6.19
2022-11-30T19:08:39.536Z,6.22
2022-11-30T19:11:08.601Z,6.17
2022-11-30T19:13:36.028Z,6.22
2022-11-30T19:16:04.627Z,6.14
2022-11-30T19:18:31.796Z,6.13
2022-11-30T19:20:58.542Z,6.21
2022-11-30T19:23:25.271Z,6.25
2022-11-30T19:25:52.446Z,6.24
2022-11-30T19:28:19.638Z,6.21
2022-11-30T19:30:46.525Z,6.17
2022-11-30T19:33:14.347Z,6.18
2022-11-30T19:35:41.072Z,6.17
2022-11-30T19:38:07.765Z,6.22
2022-11-30T19:40:34.476Z,6.23
2022-11-30T19:43:01.195Z,6.24
2022-11-30T19:45:28.215Z,6.26
2022-11-30T19:47:55.166Z,6.26
2022-11-30T19:50:22.676Z,6.25
2022-11-30T19:52:50.160Z,6.21
2022-11-30T19:55:17.045Z,6.27
2022-11-30T19:57:44.807Z,6.22
2022-11-30T20:00:12.567Z,6.24
2022-11-30T20:02:42.220Z,6.22
2022-11-30T20:05:09.340Z,6.25
2022-11-30T20:07:36.569Z,6.21
2022-11-30T20:10:03.864Z,6.22
2022-11-30T20:12:30.522Z,6.23
2022-11-30T20:14:57.246Z,6.22
2022-11-30T20:17:23.974Z,6.24
2022-11-30T20:19:50.797Z,6.22
2022-11-30T20:22:17.526Z,6.20
2022-11-30T20:24:44.301Z,6.26
2022-11-30T20:27:11.046Z,6.20
2022-11-30T20:29:37.689Z,6.22
2022-11-30T20:32:04.444Z,6.24
2022-11-30T20:34:34.762Z,6.20
2022-11-30T20:37:03.400Z,6.23
2022-11-30T20:39:30.095Z,6.21
2022-11-30T20:41:56.824Z,6.17
2022-11-30T20:44:23.520Z,6.27
2022-11-30T20:46:50.241Z,6.23
2022-11-30T20:49:19.241Z,6.26
2022-11-30T20:51:47.033Z,6.18
2022-11-30T20:54:14.835Z,6.20
2022-11-30T20:56:41.756Z,6.18
2022-11-30T20:59:13.588Z,6.20
2022-11-30T21:01:45.236Z,6.21
2022-11-30T21:04:12.270Z,6.20
2022-11-30T21:06:39.443Z,6.21
2022-11-30T21:09:06.119Z,6.23
2022-11-30T21:11:32.853Z,6.20
2022-11-30T21:13:59.589Z,6.17
2022-11-30T21:16:28.884Z,6.21
2022-11-30T21:18:58.574Z,6.25
2022-11-30T21:21:28.361Z,6.15
2022-11-30T21:23:55.070Z,6.18
2022-11-30T21:26:27.383Z,6.22
2022-11-30T21:28:58.840Z,6.21
2022-11-30T21:31:25.676Z,6.18
2022-11-30T21:33:53.770Z,6.22
2022-11-30T21:36:21.876Z,6.25
2022-11-30T21:38:53.339Z,6.26
2022-11-30T21:41:20.276Z,6.23
2022-11-30T21:43:47.053Z,6.26
2022-11-30T21:46:17.394Z,6.22
2022-11-30T21:48:46.512Z,6.23
2022-11-30T21:51:15.961Z,6.28
2022-11-30T21:53:48.231Z,6.26
2022-11-30T21:56:18.212Z,6.27
2022-11-30T21:58:47.052Z,6.29
2022-11-30T22:01:17.302Z,6.26
2022-11-30T22:03:44.184Z,6.27
2022-11-30T22:06:13.723Z,6.26
2022-11-30T22:08:41.267Z,6.22
2022-11-30T22:11:13.750Z,6.30
2022-11-30T22:13:41.339Z,6.27
2022-11-30T22:16:10.588Z,6.22
2022-11-30T22:18:37.852Z,6.24
2022-11-30T22:21:10.821Z,6.29
2022-11-30T22:23:39.629Z,6.27
2022-11-30T22:26:25.848Z,6.26
2022-11-30T22:28:58.233Z,6.24
2022-11-30T22:31:30.415Z,6.26
2022-11-30T22:33:57.875Z,6.26
2022-11-30T22:36:26.475Z,6.26
2022-11-30T22:38:57.452Z,6.27
2022-11-30T22:41:25.063Z,6.23
2022-11-30T22:43:52.277Z,6.26
2022-11-30T22:46:23.820Z,6.27
2022-11-30T22:48:51.151Z,6.19
2022-11-30T22:51:20.484Z,6.28
2022-11-30T22:53:48.144Z,6.28
2022-11-30T22:56:23.215Z,6.28
2022-11-30T22:58:54.090Z,6.33
2022-11-30T23:01:25.751Z,6.32
2022-11-30T23:03:53.918Z,6.32
2022-11-30T23:06:21.355Z,6.26
2022-11-30T23:08:49.438Z,6.28
2022-11-30T23:11:28.485Z,6.31
2022-11-30T23:13:55.301Z,6.30
2022-11-30T23:16:22.301Z,6.32
2022-11-30T23:18:52.401Z,6.30
2022-11-30T23:21:21.459Z,6.33
2022-11-30T23:23:48.796Z,6.30
2022-11-30T23:26:18.952Z,6.32
2022-11-30T23:28:48.357Z,6.32
2022-11-30T23:31:34.173Z,6.29
2022-11-30T23:34:03.854Z,6.31
2022-11-30T23:36:30.524Z,6.32
2022-11-30T23:38:59.861Z,6.34
2022-11-30T23:41:26.636Z,6.36
2022-11-30T23:43:53.584Z,6.35
2022-11-30T23:46:21.198Z,6.33
2022-11-30T23:48:48.455Z,6.34
2022-11-30T23:51:15.123Z,6.32
2022-11-30T23:53:41.761Z,6.34
2022-11-30T23:56:11.796Z,6.31
2022-11-30T23:58:39.771Z,6.36
